sensor_id;sensor_type;location;lat;lon;timestamp;P1;durP1;ratioP1;P2;durP2;ratioP2
68126;SDS011;54931;52.098;21.006;2023-02-21T00:01:54;7.90;;;4.40;;
68126;SDS011;54931;52.098;21.006;2023-02-21T00:04:42;7.70;;;5.20;;
68126;SDS011;54931;52.098;21.006;2023-02-21T00:07:32;8.00;;;4.50;;
68126;SDS011;54931;52.098;21.006;2023-02-21T00:10:19;6.60;;;3.70;;
68126;SDS011;54931;52.098;21.006;2023-02-21T00:13:07;5.10;;;3.10;;
68126;SDS011;54931;52.098;21.006;2023-02-21T00:15:55;5.00;;;2.90;;
68126;SDS011;54931;52.098;21.006;2023-02-21T00:18:42;4.60;;;2.60;;
68126;SDS011;54931;52.098;21.006;2023-02-21T00:21:29;4.70;;;2.60;;
68126;SDS011;54931;52.098;21.006;2023-02-21T00:24:18;3.80;;;2.40;;
68126;SDS011;54931;52.098;21.006;2023-02-21T00:29:51;3.90;;;2.30;;
68126;SDS011;54931;52.098;21.006;2023-02-21T00:32:38;4.20;;;2.00;;
68126;SDS011;54931;52.098;21.006;2023-02-21T00:35:24;5.00;;;2.20;;
68126;SDS011;54931;52.098;21.006;2023-02-21T00:38:11;4.60;;;2.30;;
68126;SDS011;54931;52.098;21.006;2023-02-21T00:40:58;4.30;;;2.30;;
68126;SDS011;54931;52.098;21.006;2023-02-21T00:43:45;5.00;;;2.30;;
68126;SDS011;54931;52.098;21.006;2023-02-21T00:46:32;4.30;;;2.90;;
68126;SDS011;54931;52.098;21.006;2023-02-21T00:49:19;8.20;;;3.40;;
68126;SDS011;54931;52.098;21.006;2023-02-21T00:52:05;3.80;;;2.70;;
68126;SDS011;54931;52.098;21.006;2023-02-21T00:54:52;3.60;;;2.60;;
68126;SDS011;54931;52.098;21.006;2023-02-21T00:57:38;3.00;;;2.00;;
68126;SDS011;54931;52.098;21.006;2023-02-21T01:00:25;3.60;;;2.40;;
68126;SDS011;54931;52.098;21.006;2023-02-21T01:03:12;3.20;;;1.70;;
68126;SDS011;54931;52.098;21.006;2023-02-21T01:05:58;3.30;;;2.20;;
68126;SDS011;54931;52.098;21.006;2023-02-21T01:08:45;3.10;;;2.00;;
68126;SDS011;54931;52.098;21.006;2023-02-21T01:11:32;5.10;;;2.50;;
68126;SDS011;54931;52.098;21.006;2023-02-21T01:14:19;4.00;;;2.10;;
68126;SDS011;54931;52.098;21.006;2023-02-21T01:17:06;3.20;;;2.00;;
68126;SDS011;54931;52.098;21.006;2023-02-21T01:19:53;4.60;;;2.50;;
68126;SDS011;54931;52.098;21.006;2023-02-21T01:22:39;3.40;;;2.00;;
68126;SDS011;54931;52.098;21.006;2023-02-21T01:25:26;4.60;;;2.20;;
68126;SDS011;54931;52.098;21.006;2023-02-21T01:28:13;3.40;;;2.00;;
68126;SDS011;54931;52.098;21.006;2023-02-21T01:30:59;4.30;;;2.20;;
68126;SDS011;54931;52.098;21.006;2023-02-21T01:33:46;3.10;;;1.80;;
68126;SDS011;54931;52.098;21.006;2023-02-21T01:36:32;3.80;;;2.20;;
68126;SDS011;54931;52.098;21.006;2023-02-21T01:39:19;3.20;;;2.00;;
68126;SDS011;54931;52.098;21.006;2023-02-21T01:42:08;4.80;;;2.00;;
68126;SDS011;54931;52.098;21.006;2023-02-21T01:45:37;2.70;;;1.90;;
68126;SDS011;54931;52.098;21.006;2023-02-21T01:48:29;4.00;;;1.80;;
68126;SDS011;54931;52.098;21.006;2023-02-21T01:51:20;2.60;;;1.70;;
68126;SDS011;54931;52.098;21.006;2023-02-21T01:54:09;5.10;;;1.90;;
68126;SDS011;54931;52.098;21.006;2023-02-21T01:56:58;4.60;;;1.60;;
68126;SDS011;54931;52.098;21.006;2023-02-21T01:59:48;4.30;;;1.40;;
68126;SDS011;54931;52.098;21.006;2023-02-21T02:05:36;3.50;;;2.10;;
68126;SDS011;54931;52.098;21.006;2023-02-21T02:08:28;3.30;;;1.80;;
68126;SDS011;54931;52.098;21.006;2023-02-21T02:14:50;3.70;;;1.80;;
68126;SDS011;54931;52.098;21.006;2023-02-21T02:27:23;3.90;;;1.70;;
68126;SDS011;54931;52.098;21.006;2023-02-21T02:36:28;4.10;;;1.70;;
68126;SDS011;54931;52.098;21.006;2023-02-21T02:39:21;3.30;;;1.70;;
68126;SDS011;54931;52.098;21.006;2023-02-21T02:44:58;3.30;;;1.40;;
68126;SDS011;54931;52.098;21.006;2023-02-21T02:47:35;11.50;;;1.80;;
68126;SDS011;54931;52.098;21.006;2023-02-21T02:50:06;4.60;;;1.80;;
68126;SDS011;54931;52.098;21.006;2023-02-21T02:52:37;2.30;;;1.40;;
68126;SDS011;54931;52.098;21.006;2023-02-21T02:55:38;4.20;;;1.60;;
68126;SDS011;54931;52.098;21.006;2023-02-21T02:58:21;4.10;;;1.80;;
68126;SDS011;54931;52.098;21.006;2023-02-21T03:02:02;3.70;;;1.60;;
68126;SDS011;54931;52.098;21.006;2023-02-21T03:04:57;5.40;;;1.60;;
68126;SDS011;54931;52.098;21.006;2023-02-21T03:13:33;2.50;;;1.30;;
68126;SDS011;54931;52.098;21.006;2023-02-21T03:18:48;4.10;;;1.60;;
68126;SDS011;54931;52.098;21.006;2023-02-21T03:21:42;8.00;;;1.90;;
68126;SDS011;54931;52.098;21.006;2023-02-21T03:26:47;3.80;;;1.50;;
68126;SDS011;54931;52.098;21.006;2023-02-21T03:29:19;5.70;;;1.50;;
68126;SDS011;54931;52.098;21.006;2023-02-21T03:31:54;3.50;;;1.20;;
68126;SDS011;54931;52.098;21.006;2023-02-21T03:34:27;3.30;;;1.40;;
68126;SDS011;54931;52.098;21.006;2023-02-21T03:36:55;4.30;;;1.40;;
68126;SDS011;54931;52.098;21.006;2023-02-21T03:39:23;4.30;;;1.50;;
68126;SDS011;54931;52.098;21.006;2023-02-21T03:41:51;6.80;;;1.60;;
68126;SDS011;54931;52.098;21.006;2023-02-21T03:44:19;3.70;;;1.40;;
68126;SDS011;54931;52.098;21.006;2023-02-21T03:46:47;4.90;;;1.30;;
68126;SDS011;54931;52.098;21.006;2023-02-21T03:49:15;5.90;;;1.60;;
68126;SDS011;54931;52.098;21.006;2023-02-21T03:51:43;3.70;;;1.50;;
68126;SDS011;54931;52.098;21.006;2023-02-21T03:54:11;7.00;;;2.30;;
68126;SDS011;54931;52.098;21.006;2023-02-21T03:56:39;5.70;;;1.50;;
68126;SDS011;54931;52.098;21.006;2023-02-21T03:59:07;4.10;;;1.20;;
68126;SDS011;54931;52.098;21.006;2023-02-21T04:01:35;6.00;;;1.60;;
68126;SDS011;54931;52.098;21.006;2023-02-21T04:04:03;6.80;;;1.90;;
68126;SDS011;54931;52.098;21.006;2023-02-21T04:06:31;6.60;;;1.80;;
68126;SDS011;54931;52.098;21.006;2023-02-21T04:08:59;5.30;;;1.60;;
68126;SDS011;54931;52.098;21.006;2023-02-21T04:11:27;8.00;;;1.70;;
68126;SDS011;54931;52.098;21.006;2023-02-21T04:13:55;4.60;;;1.30;;
68126;SDS011;54931;52.098;21.006;2023-02-21T04:16:23;3.90;;;1.60;;
68126;SDS011;54931;52.098;21.006;2023-02-21T04:18:50;4.00;;;1.30;;
68126;SDS011;54931;52.098;21.006;2023-02-21T04:21:19;6.80;;;1.50;;
68126;SDS011;54931;52.098;21.006;2023-02-21T04:23:47;6.10;;;1.70;;
68126;SDS011;54931;52.098;21.006;2023-02-21T04:26:15;5.60;;;1.10;;
68126;SDS011;54931;52.098;21.006;2023-02-21T04:28:43;7.20;;;2.00;;
68126;SDS011;54931;52.098;21.006;2023-02-21T04:31:14;5.20;;;1.90;;
68126;SDS011;54931;52.098;21.006;2023-02-21T04:33:43;8.60;;;1.60;;
68126;SDS011;54931;52.098;21.006;2023-02-21T04:36:11;8.20;;;1.40;;
68126;SDS011;54931;52.098;21.006;2023-02-21T04:38:40;9.70;;;1.90;;
68126;SDS011;54931;52.098;21.006;2023-02-21T04:41:08;9.10;;;2.40;;
68126;SDS011;54931;52.098;21.006;2023-02-21T04:43:35;6.90;;;1.70;;
68126;SDS011;54931;52.098;21.006;2023-02-21T04:46:04;7.40;;;2.00;;
68126;SDS011;54931;52.098;21.006;2023-02-21T04:48:32;7.50;;;1.60;;
68126;SDS011;54931;52.098;21.006;2023-02-21T04:51:00;6.40;;;1.60;;
68126;SDS011;54931;52.098;21.006;2023-02-21T04:53:28;8.70;;;2.10;;
68126;SDS011;54931;52.098;21.006;2023-02-21T04:55:56;7.90;;;1.50;;
68126;SDS011;54931;52.098;21.006;2023-02-21T04:58:24;8.70;;;1.90;;
68126;SDS011;54931;52.098;21.006;2023-02-21T05:00:52;12.50;;;2.10;;
68126;SDS011;54931;52.098;21.006;2023-02-21T05:03:20;6.10;;;2.00;;
68126;SDS011;54931;52.098;21.006;2023-02-21T05:05:48;6.80;;;1.70;;
68126;SDS011;54931;52.098;21.006;2023-02-21T05:08:16;9.40;;;1.80;;
68126;SDS011;54931;52.098;21.006;2023-02-21T05:10:45;9.00;;;2.00;;
68126;SDS011;54931;52.098;21.006;2023-02-21T05:13:13;5.90;;;1.70;;
68126;SDS011;54931;52.098;21.006;2023-02-21T05:15:41;6.80;;;1.60;;
68126;SDS011;54931;52.098;21.006;2023-02-21T05:18:10;7.80;;;2.00;;
68126;SDS011;54931;52.098;21.006;2023-02-21T05:20:39;9.20;;;1.90;;
68126;SDS011;54931;52.098;21.006;2023-02-21T05:23:07;11.10;;;2.10;;
68126;SDS011;54931;52.098;21.006;2023-02-21T05:25:35;9.80;;;1.70;;
68126;SDS011;54931;52.098;21.006;2023-02-21T05:28:04;6.00;;;1.90;;
68126;SDS011;54931;52.098;21.006;2023-02-21T05:30:32;5.10;;;1.40;;
68126;SDS011;54931;52.098;21.006;2023-02-21T05:33:01;8.20;;;1.80;;
68126;SDS011;54931;52.098;21.006;2023-02-21T05:35:29;8.10;;;1.90;;
68126;SDS011;54931;52.098;21.006;2023-02-21T05:37:57;9.10;;;1.60;;
68126;SDS011;54931;52.098;21.006;2023-02-21T05:40:26;8.20;;;1.80;;
68126;SDS011;54931;52.098;21.006;2023-02-21T05:42:54;8.60;;;1.70;;
68126;SDS011;54931;52.098;21.006;2023-02-21T05:45:22;5.30;;;1.90;;
68126;SDS011;54931;52.098;21.006;2023-02-21T05:47:51;7.90;;;1.80;;
68126;SDS011;54931;52.098;21.006;2023-02-21T05:50:22;5.30;;;2.00;;
68126;SDS011;54931;52.098;21.006;2023-02-21T05:52:52;12.10;;;2.20;;
68126;SDS011;54931;52.098;21.006;2023-02-21T05:55:20;10.20;;;2.10;;
68126;SDS011;54931;52.098;21.006;2023-02-21T05:57:49;7.90;;;2.00;;
68126;SDS011;54931;52.098;21.006;2023-02-21T06:00:29;10.70;;;2.40;;
68126;SDS011;54931;52.098;21.006;2023-02-21T06:02:57;9.50;;;1.90;;
68126;SDS011;54931;52.098;21.006;2023-02-21T06:05:26;6.40;;;1.90;;
68126;SDS011;54931;52.098;21.006;2023-02-21T06:07:55;11.40;;;2.30;;
68126;SDS011;54931;52.098;21.006;2023-02-21T06:10:23;8.50;;;1.80;;
68126;SDS011;54931;52.098;21.006;2023-02-21T06:12:51;10.90;;;2.50;;
68126;SDS011;54931;52.098;21.006;2023-02-21T06:15:19;8.90;;;1.80;;
68126;SDS011;54931;52.098;21.006;2023-02-21T06:17:47;12.70;;;2.00;;
68126;SDS011;54931;52.098;21.006;2023-02-21T06:20:15;9.90;;;2.50;;
68126;SDS011;54931;52.098;21.006;2023-02-21T06:22:43;12.20;;;2.20;;
68126;SDS011;54931;52.098;21.006;2023-02-21T06:25:12;10.90;;;2.70;;
68126;SDS011;54931;52.098;21.006;2023-02-21T06:27:41;15.60;;;2.30;;
68126;SDS011;54931;52.098;21.006;2023-02-21T06:30:10;17.10;;;2.70;;
68126;SDS011;54931;52.098;21.006;2023-02-21T06:32:39;10.80;;;2.20;;
68126;SDS011;54931;52.098;21.006;2023-02-21T06:35:09;16.50;;;2.20;;
68126;SDS011;54931;52.098;21.006;2023-02-21T06:37:37;9.90;;;2.10;;
68126;SDS011;54931;52.098;21.006;2023-02-21T06:40:05;9.20;;;2.20;;
68126;SDS011;54931;52.098;21.006;2023-02-21T06:42:33;9.70;;;2.40;;
68126;SDS011;54931;52.098;21.006;2023-02-21T06:45:01;9.80;;;2.10;;
68126;SDS011;54931;52.098;21.006;2023-02-21T06:47:30;9.20;;;1.90;;
68126;SDS011;54931;52.098;21.006;2023-02-21T06:49:58;11.40;;;2.50;;
68126;SDS011;54931;52.098;21.006;2023-02-21T06:52:26;8.90;;;2.00;;
68126;SDS011;54931;52.098;21.006;2023-02-21T06:54:54;9.00;;;2.10;;
68126;SDS011;54931;52.098;21.006;2023-02-21T06:57:21;11.30;;;2.40;;
68126;SDS011;54931;52.098;21.006;2023-02-21T06:59:49;8.80;;;2.20;;
68126;SDS011;54931;52.098;21.006;2023-02-21T07:02:18;8.90;;;1.90;;
68126;SDS011;54931;52.098;21.006;2023-02-21T07:04:47;12.00;;;2.10;;
68126;SDS011;54931;52.098;21.006;2023-02-21T07:07:15;7.20;;;2.00;;
68126;SDS011;54931;52.098;21.006;2023-02-21T07:09:43;6.40;;;1.90;;
68126;SDS011;54931;52.098;21.006;2023-02-21T07:12:11;9.20;;;2.60;;
68126;SDS011;54931;52.098;21.006;2023-02-21T07:14:39;9.30;;;2.40;;
68126;SDS011;54931;52.098;21.006;2023-02-21T07:17:07;7.70;;;2.00;;
68126;SDS011;54931;52.098;21.006;2023-02-21T07:19:35;9.60;;;2.20;;
68126;SDS011;54931;52.098;21.006;2023-02-21T07:22:03;12.60;;;2.20;;
68126;SDS011;54931;52.098;21.006;2023-02-21T07:24:30;13.10;;;2.90;;
68126;SDS011;54931;52.098;21.006;2023-02-21T07:26:59;9.20;;;1.80;;
68126;SDS011;54931;52.098;21.006;2023-02-21T07:29:27;12.30;;;2.70;;
68126;SDS011;54931;52.098;21.006;2023-02-21T07:31:55;13.10;;;2.40;;
68126;SDS011;54931;52.098;21.006;2023-02-21T07:34:24;12.90;;;2.00;;
68126;SDS011;54931;52.098;21.006;2023-02-21T07:36:52;13.00;;;2.80;;
68126;SDS011;54931;52.098;21.006;2023-02-21T07:39:20;15.20;;;2.20;;
68126;SDS011;54931;52.098;21.006;2023-02-21T07:41:48;11.90;;;2.00;;
68126;SDS011;54931;52.098;21.006;2023-02-21T07:44:16;11.40;;;2.60;;
68126;SDS011;54931;52.098;21.006;2023-02-21T07:46:44;11.00;;;2.40;;
68126;SDS011;54931;52.098;21.006;2023-02-21T07:49:12;14.60;;;2.60;;
68126;SDS011;54931;52.098;21.006;2023-02-21T07:51:40;16.10;;;2.60;;
68126;SDS011;54931;52.098;21.006;2023-02-21T07:54:08;9.40;;;2.20;;
68126;SDS011;54931;52.098;21.006;2023-02-21T07:56:44;10.10;;;2.40;;
68126;SDS011;54931;52.098;21.006;2023-02-21T08:01:42;11.70;;;2.40;;
68126;SDS011;54931;52.098;21.006;2023-02-21T08:04:10;13.90;;;2.30;;
68126;SDS011;54931;52.098;21.006;2023-02-21T08:06:39;11.80;;;3.10;;
68126;SDS011;54931;52.098;21.006;2023-02-21T08:09:07;13.20;;;2.40;;
68126;SDS011;54931;52.098;21.006;2023-02-21T08:11:35;13.20;;;2.60;;
68126;SDS011;54931;52.098;21.006;2023-02-21T08:14:03;12.50;;;3.00;;
68126;SDS011;54931;52.098;21.006;2023-02-21T08:16:31;14.20;;;2.90;;
68126;SDS011;54931;52.098;21.006;2023-02-21T08:18:59;16.00;;;3.60;;
68126;SDS011;54931;52.098;21.006;2023-02-21T08:21:27;9.00;;;2.30;;
68126;SDS011;54931;52.098;21.006;2023-02-21T08:23:54;12.10;;;2.70;;
68126;SDS011;54931;52.098;21.006;2023-02-21T08:26:22;10.90;;;2.50;;
68126;SDS011;54931;52.098;21.006;2023-02-21T08:28:50;9.30;;;2.50;;
68126;SDS011;54931;52.098;21.006;2023-02-21T08:31:19;11.90;;;2.50;;
68126;SDS011;54931;52.098;21.006;2023-02-21T08:33:47;13.80;;;3.00;;
68126;SDS011;54931;52.098;21.006;2023-02-21T08:36:15;10.90;;;2.60;;
68126;SDS011;54931;52.098;21.006;2023-02-21T08:38:43;11.50;;;2.90;;
68126;SDS011;54931;52.098;21.006;2023-02-21T08:41:11;8.60;;;2.40;;
68126;SDS011;54931;52.098;21.006;2023-02-21T08:43:39;8.30;;;2.50;;
68126;SDS011;54931;52.098;21.006;2023-02-21T08:46:07;12.60;;;2.60;;
68126;SDS011;54931;52.098;21.006;2023-02-21T08:48:35;14.40;;;2.40;;
68126;SDS011;54931;52.098;21.006;2023-02-21T08:51:03;10.60;;;2.80;;
68126;SDS011;54931;52.098;21.006;2023-02-21T08:53:31;10.30;;;2.50;;
68126;SDS011;54931;52.098;21.006;2023-02-21T08:55:59;9.10;;;2.30;;
68126;SDS011;54931;52.098;21.006;2023-02-21T08:58:28;13.70;;;2.00;;
68126;SDS011;54931;52.098;21.006;2023-02-21T09:00:56;12.30;;;2.50;;
68126;SDS011;54931;52.098;21.006;2023-02-21T09:03:24;10.20;;;2.30;;
68126;SDS011;54931;52.098;21.006;2023-02-21T09:05:52;9.80;;;2.80;;
68126;SDS011;54931;52.098;21.006;2023-02-21T09:08:20;9.00;;;2.60;;
68126;SDS011;54931;52.098;21.006;2023-02-21T09:10:50;11.50;;;2.10;;
68126;SDS011;54931;52.098;21.006;2023-02-21T09:13:18;14.30;;;2.90;;
68126;SDS011;54931;52.098;21.006;2023-02-21T09:15:46;7.70;;;2.50;;
68126;SDS011;54931;52.098;21.006;2023-02-21T09:18:15;17.50;;;3.30;;
68126;SDS011;54931;52.098;21.006;2023-02-21T09:20:43;10.80;;;2.40;;
68126;SDS011;54931;52.098;21.006;2023-02-21T09:23:17;14.10;;;2.80;;
68126;SDS011;54931;52.098;21.006;2023-02-21T09:25:47;14.20;;;3.00;;
68126;SDS011;54931;52.098;21.006;2023-02-21T09:28:15;9.50;;;2.70;;
68126;SDS011;54931;52.098;21.006;2023-02-21T09:30:44;11.30;;;2.60;;
68126;SDS011;54931;52.098;21.006;2023-02-21T09:33:14;9.80;;;2.60;;
68126;SDS011;54931;52.098;21.006;2023-02-21T09:35:42;15.50;;;2.90;;
68126;SDS011;54931;52.098;21.006;2023-02-21T09:38:10;9.50;;;2.50;;
68126;SDS011;54931;52.098;21.006;2023-02-21T09:43:35;10.20;;;3.00;;
68126;SDS011;54931;52.098;21.006;2023-02-21T09:46:31;12.40;;;2.70;;
68126;SDS011;54931;52.098;21.006;2023-02-21T09:49:03;8.60;;;2.40;;
68126;SDS011;54931;52.098;21.006;2023-02-21T09:54:33;11.10;;;2.70;;
68126;SDS011;54931;52.098;21.006;2023-02-21T09:57:10;15.10;;;3.10;;
68126;SDS011;54931;52.098;21.006;2023-02-21T09:59:41;13.30;;;3.30;;
68126;SDS011;54931;52.098;21.006;2023-02-21T10:08:36;10.50;;;2.90;;
68126;SDS011;54931;52.098;21.006;2023-02-21T10:11:41;11.30;;;2.40;;
68126;SDS011;54931;52.098;21.006;2023-02-21T10:14:46;15.60;;;3.60;;
68126;SDS011;54931;52.098;21.006;2023-02-21T10:20:13;15.50;;;3.70;;
68126;SDS011;54931;52.098;21.006;2023-02-21T10:22:55;9.20;;;2.50;;
68126;SDS011;54931;52.098;21.006;2023-02-21T10:25:26;14.00;;;4.20;;
68126;SDS011;54931;52.098;21.006;2023-02-21T10:27:59;13.20;;;3.30;;
68126;SDS011;54931;52.098;21.006;2023-02-21T10:30:36;8.50;;;2.30;;
68126;SDS011;54931;52.098;21.006;2023-02-21T10:33:07;13.70;;;4.00;;
68126;SDS011;54931;52.098;21.006;2023-02-21T10:35:36;14.50;;;3.90;;
68126;SDS011;54931;52.098;21.006;2023-02-21T10:38:14;16.10;;;3.40;;
68126;SDS011;54931;52.098;21.006;2023-02-21T10:40:58;11.90;;;3.00;;
68126;SDS011;54931;52.098;21.006;2023-02-21T10:46:22;14.30;;;3.60;;
68126;SDS011;54931;52.098;21.006;2023-02-21T10:49:21;20.80;;;4.40;;
68126;SDS011;54931;52.098;21.006;2023-02-21T10:52:10;20.30;;;5.10;;
68126;SDS011;54931;52.098;21.006;2023-02-21T10:54:39;10.70;;;2.70;;
68126;SDS011;54931;52.098;21.006;2023-02-21T10:57:09;12.80;;;2.80;;
68126;SDS011;54931;52.098;21.006;2023-02-21T10:59:42;16.80;;;3.90;;
68126;SDS011;54931;52.098;21.006;2023-02-21T11:02:35;27.30;;;8.40;;
68126;SDS011;54931;52.098;21.006;2023-02-21T11:05:16;27.80;;;8.60;;
68126;SDS011;54931;52.098;21.006;2023-02-21T11:08:02;18.50;;;6.10;;
68126;SDS011;54931;52.098;21.006;2023-02-21T11:10:42;32.60;;;9.70;;
68126;SDS011;54931;52.098;21.006;2023-02-21T11:13:16;11.00;;;2.90;;
68126;SDS011;54931;52.098;21.006;2023-02-21T11:15:48;10.10;;;3.00;;
68126;SDS011;54931;52.098;21.006;2023-02-21T11:18:36;7.70;;;2.00;;
68126;SDS011;54931;52.098;21.006;2023-02-21T11:21:15;8.60;;;2.40;;
68126;SDS011;54931;52.098;21.006;2023-02-21T11:26:51;7.30;;;2.80;;
68126;SDS011;54931;52.098;21.006;2023-02-21T11:29:23;7.00;;;2.30;;
68126;SDS011;54931;52.098;21.006;2023-02-21T11:31:54;9.50;;;2.30;;
68126;SDS011;54931;52.098;21.006;2023-02-21T11:34:27;10.00;;;2.80;;
68126;SDS011;54931;52.098;21.006;2023-02-21T11:37:02;10.80;;;2.30;;
68126;SDS011;54931;52.098;21.006;2023-02-21T11:39:32;8.40;;;2.40;;
68126;SDS011;54931;52.098;21.006;2023-02-21T11:42:03;12.20;;;2.40;;
68126;SDS011;54931;52.098;21.006;2023-02-21T11:45:51;10.80;;;2.70;;
68126;SDS011;54931;52.098;21.006;2023-02-21T11:48:03;8.30;;;3.00;;
68126;SDS011;54931;52.098;21.006;2023-02-21T11:50:37;9.40;;;2.30;;
68126;SDS011;54931;52.098;21.006;2023-02-21T11:53:19;8.50;;;2.70;;
68126;SDS011;54931;52.098;21.006;2023-02-21T11:56:10;7.20;;;2.50;;
68126;SDS011;54931;52.098;21.006;2023-02-21T11:59:15;10.80;;;3.20;;
68126;SDS011;54931;52.098;21.006;2023-02-21T12:13:55;10.80;;;2.60;;
68126;SDS011;54931;52.098;21.006;2023-02-21T12:20:07;8.90;;;2.80;;
68126;SDS011;54931;52.098;21.006;2023-02-21T12:32:32;14.90;;;2.90;;
68126;SDS011;54931;52.098;21.006;2023-02-21T12:41:33;6.10;;;2.00;;
68126;SDS011;54931;52.098;21.006;2023-02-21T12:47:51;8.00;;;2.10;;
68126;SDS011;54931;52.098;21.006;2023-02-21T12:50:40;7.80;;;2.50;;
68126;SDS011;54931;52.098;21.006;2023-02-21T12:53:16;8.30;;;2.10;;
68126;SDS011;54931;52.098;21.006;2023-02-21T12:56:46;6.60;;;2.60;;
68126;SDS011;54931;52.098;21.006;2023-02-21T13:00:04;7.50;;;2.40;;
68126;SDS011;54931;52.098;21.006;2023-02-21T13:03:00;10.20;;;2.70;;
68126;SDS011;54931;52.098;21.006;2023-02-21T13:05:56;12.50;;;2.70;;
68126;SDS011;54931;52.098;21.006;2023-02-21T13:08:46;11.10;;;2.80;;
68126;SDS011;54931;52.098;21.006;2023-02-21T13:13:56;9.00;;;2.70;;
68126;SDS011;54931;52.098;21.006;2023-02-21T13:16:26;9.30;;;3.30;;
68126;SDS011;54931;52.098;21.006;2023-02-21T13:18:58;14.20;;;5.10;;
68126;SDS011;54931;52.098;21.006;2023-02-21T13:24:54;18.10;;;5.90;;
68126;SDS011;54931;52.098;21.006;2023-02-21T13:28:03;12.70;;;3.70;;
68126;SDS011;54931;52.098;21.006;2023-02-21T13:30:40;9.40;;;3.00;;
68126;SDS011;54931;52.098;21.006;2023-02-21T13:36:29;19.30;;;6.30;;
68126;SDS011;54931;52.098;21.006;2023-02-21T13:39:01;10.60;;;2.90;;
68126;SDS011;54931;52.098;21.006;2023-02-21T13:42:09;12.60;;;4.40;;
68126;SDS011;54931;52.098;21.006;2023-02-21T13:44:50;13.10;;;5.30;;
68126;SDS011;54931;52.098;21.006;2023-02-21T13:47:21;21.30;;;6.30;;
68126;SDS011;54931;52.098;21.006;2023-02-21T13:49:52;13.00;;;4.40;;
68126;SDS011;54931;52.098;21.006;2023-02-21T13:57:51;13.50;;;3.60;;
68126;SDS011;54931;52.098;21.006;2023-02-21T14:08:27;14.50;;;3.70;;
68126;SDS011;54931;52.098;21.006;2023-02-21T14:11:22;14.80;;;3.80;;
68126;SDS011;54931;52.098;21.006;2023-02-21T14:13:57;16.10;;;3.30;;
68126;SDS011;54931;52.098;21.006;2023-02-21T14:19:16;11.00;;;2.80;;
68126;SDS011;54931;52.098;21.006;2023-02-21T14:21:54;13.20;;;3.00;;
68126;SDS011;54931;52.098;21.006;2023-02-21T14:24:33;15.60;;;4.10;;
68126;SDS011;54931;52.098;21.006;2023-02-21T14:29:39;17.90;;;3.60;;
68126;SDS011;54931;52.098;21.006;2023-02-21T14:40:18;19.20;;;3.80;;
68126;SDS011;54931;52.098;21.006;2023-02-21T14:57:59;15.20;;;3.90;;
68126;SDS011;54931;52.098;21.006;2023-02-21T15:03:43;17.80;;;4.10;;
68126;SDS011;54931;52.098;21.006;2023-02-21T15:06:31;26.20;;;4.30;;
68126;SDS011;54931;52.098;21.006;2023-02-21T15:09:11;17.50;;;4.20;;
68126;SDS011;54931;52.098;21.006;2023-02-21T15:11:47;25.40;;;4.80;;
68126;SDS011;54931;52.098;21.006;2023-02-21T15:14:24;21.30;;;4.20;;
68126;SDS011;54931;52.098;21.006;2023-02-21T15:16:59;20.90;;;5.00;;
68126;SDS011;54931;52.098;21.006;2023-02-21T15:19:36;20.70;;;4.20;;
68126;SDS011;54931;52.098;21.006;2023-02-21T15:22:18;20.50;;;4.60;;
68126;SDS011;54931;52.098;21.006;2023-02-21T15:30:21;23.60;;;5.70;;
68126;SDS011;54931;52.098;21.006;2023-02-21T15:38:46;15.60;;;3.80;;
68126;SDS011;54931;52.098;21.006;2023-02-21T15:41:30;20.00;;;4.40;;
68126;SDS011;54931;52.098;21.006;2023-02-21T15:44:27;21.30;;;4.40;;
68126;SDS011;54931;52.098;21.006;2023-02-21T15:50:45;20.10;;;5.10;;
68126;SDS011;54931;52.098;21.006;2023-02-21T15:55:43;25.40;;;9.70;;
68126;SDS011;54931;52.098;21.006;2023-02-21T15:58:22;29.70;;;8.80;;
68126;SDS011;54931;52.098;21.006;2023-02-21T16:01:07;51.50;;;19.10;;
68126;SDS011;54931;52.098;21.006;2023-02-21T16:03:44;24.20;;;8.00;;
68126;SDS011;54931;52.098;21.006;2023-02-21T16:06:24;70.70;;;23.60;;
68126;SDS011;54931;52.098;21.006;2023-02-21T16:09:03;65.10;;;23.10;;
68126;SDS011;54931;52.098;21.006;2023-02-21T16:11:41;98.30;;;36.70;;
68126;SDS011;54931;52.098;21.006;2023-02-21T16:14:38;68.50;;;23.20;;
68126;SDS011;54931;52.098;21.006;2023-02-21T16:17:29;65.80;;;20.90;;
68126;SDS011;54931;52.098;21.006;2023-02-21T16:20:20;77.70;;;25.70;;
68126;SDS011;54931;52.098;21.006;2023-02-21T16:26:00;96.10;;;26.30;;
68126;SDS011;54931;52.098;21.006;2023-02-21T16:28:30;81.20;;;24.10;;
68126;SDS011;54931;52.098;21.006;2023-02-21T16:31:00;165.80;;;55.20;;
68126;SDS011;54931;52.098;21.006;2023-02-21T16:33:32;102.80;;;32.50;;
68126;SDS011;54931;52.098;21.006;2023-02-21T16:36:05;119.30;;;36.70;;
68126;SDS011;54931;52.098;21.006;2023-02-21T16:38:53;84.20;;;29.90;;
68126;SDS011;54931;52.098;21.006;2023-02-21T16:41:45;29.70;;;8.90;;
68126;SDS011;54931;52.098;21.006;2023-02-21T16:44:13;58.00;;;18.90;;
68126;SDS011;54931;52.098;21.006;2023-02-21T16:46:42;63.50;;;21.20;;
68126;SDS011;54931;52.098;21.006;2023-02-21T16:49:11;26.00;;;8.10;;
68126;SDS011;54931;52.098;21.006;2023-02-21T16:51:39;36.50;;;11.20;;
68126;SDS011;54931;52.098;21.006;2023-02-21T16:54:09;25.50;;;8.60;;
68126;SDS011;54931;52.098;21.006;2023-02-21T16:56:41;41.40;;;13.60;;
68126;SDS011;54931;52.098;21.006;2023-02-21T16:59:15;28.60;;;7.30;;
68126;SDS011;54931;52.098;21.006;2023-02-21T17:01:46;56.60;;;20.20;;
68126;SDS011;54931;52.098;21.006;2023-02-21T17:04:21;32.80;;;11.30;;
68126;SDS011;54931;52.098;21.006;2023-02-21T17:07:04;28.50;;;7.90;;
68126;SDS011;54931;52.098;21.006;2023-02-21T17:09:36;38.10;;;14.30;;
68126;SDS011;54931;52.098;21.006;2023-02-21T17:12:06;35.90;;;10.40;;
68126;SDS011;54931;52.098;21.006;2023-02-21T17:14:35;27.40;;;7.90;;
68126;SDS011;54931;52.098;21.006;2023-02-21T17:17:03;32.00;;;9.90;;
68126;SDS011;54931;52.098;21.006;2023-02-21T17:19:31;26.60;;;7.40;;
68126;SDS011;54931;52.098;21.006;2023-02-21T17:21:59;37.00;;;13.80;;
68126;SDS011;54931;52.098;21.006;2023-02-21T17:24:27;22.80;;;7.20;;
68126;SDS011;54931;52.098;21.006;2023-02-21T17:26:55;22.20;;;7.20;;
68126;SDS011;54931;52.098;21.006;2023-02-21T17:29:24;27.40;;;8.10;;
68126;SDS011;54931;52.098;21.006;2023-02-21T17:31:53;27.50;;;8.00;;
68126;SDS011;54931;52.098;21.006;2023-02-21T17:34:22;27.90;;;8.40;;
68126;SDS011;54931;52.098;21.006;2023-02-21T17:36:51;29.10;;;5.90;;
68126;SDS011;54931;52.098;21.006;2023-02-21T17:39:20;25.00;;;5.20;;
68126;SDS011;54931;52.098;21.006;2023-02-21T17:41:49;26.00;;;6.30;;
68126;SDS011;54931;52.098;21.006;2023-02-21T17:44:19;27.20;;;7.00;;
68126;SDS011;54931;52.098;21.006;2023-02-21T17:46:50;28.80;;;6.20;;
68126;SDS011;54931;52.098;21.006;2023-02-21T17:49:26;23.90;;;5.40;;
68126;SDS011;54931;52.098;21.006;2023-02-21T17:51:54;23.30;;;5.90;;
68126;SDS011;54931;52.098;21.006;2023-02-21T17:54:23;26.60;;;6.90;;
68126;SDS011;54931;52.098;21.006;2023-02-21T17:56:51;26.20;;;6.50;;
68126;SDS011;54931;52.098;21.006;2023-02-21T17:59:19;32.90;;;9.60;;
68126;SDS011;54931;52.098;21.006;2023-02-21T18:01:52;51.00;;;18.10;;
68126;SDS011;54931;52.098;21.006;2023-02-21T18:04:21;46.00;;;14.80;;
68126;SDS011;54931;52.098;21.006;2023-02-21T18:06:51;85.90;;;26.50;;
68126;SDS011;54931;52.098;21.006;2023-02-21T18:09:19;65.60;;;20.60;;